sensor_id;sensor_type;location;lat;lon;timestamp;pressure;altitude;pressure_sealevel;temperature;humidity
14232;BME280;7200;52.194;9.900;2023-01-28T00:01:49;101387.91;;;2.05;100.00
14232;BME280;7200;52.194;9.900;2023-01-28T00:04:14;101377.47;;;2.02;100.00
14232;BME280;7200;52.194;9.900;2023-01-28T00:06:40;101387.88;;;2.03;100.00
14232;BME280;7200;52.194;9.900;2023-01-28T00:09:06;101387.81;;;1.99;100.00
14232;BME280;7200;52.194;9.900;2023-01-28T00:11:31;101399.97;;;2.00;100.00
14232;BME280;7200;52.194;9.900;2023-01-28T00:13:58;101380.81;;;1.93;100.00
14232;BME280;7200;52.194;9.900;2023-01-28T00:16:23;101377.31;;;1.94;100.00
14232;BME280;7200;52.194;9.900;2023-01-28T00:18:50;101365.16;;;1.91;100.00
14232;BME280;7200;52.194;9.900;2023-01-28T00:21:16;101362.56;;;1.91;100.00
14232;BME280;7200;52.194;9.900;2023-01-28T00:23:42;101342.53;;;1.86;100.00
14232;BME280;7200;52.194;9.900;2023-01-28T00:26:10;101353.78;;;1.83;100.00
14232;BME280;7200;52.194;9.900;2023-01-28T00:28:35;101367.72;;;1.87;100.00
14232;BME280;7200;52.194;9.900;2023-01-28T00:31:08;101386.81;;;1.89;100.00
14232;BME280;7200;52.194;9.900;2023-01-28T00:33:34;101390.31;;;1.91;100.00
14232;BME280;7200;52.194;9.900;2023-01-28T00:36:00;101398.06;;;1.88;100.00
14232;BME280;7200;52.194;9.900;2023-01-28T00:38:27;101389.97;;;1.69;100.00
14232;BME280;7200;52.194;9.900;2023-01-28T00:40:53;101371.38;;;1.45;100.00
14232;BME280;7200;52.194;9.900;2023-01-28T00:43:18;101400.97;;;1.51;100.00
14232;BME280;7200;52.194;9.900;2023-01-28T00:45:43;101402.84;;;1.59;100.00
14232;BME280;7200;52.194;9.900;2023-01-28T00:48:08;101440.34;;;1.71;100.00
14232;BME280;7200;52.194;9.900;2023-01-28T00:50:34;101429.13;;;1.77;100.00
14232;BME280;7200;52.194;9.900;2023-01-28T00:52:59;101422.22;;;1.78;100.00
14232;BME280;7200;52.194;9.900;2023-01-28T00:55:25;101400.41;;;1.71;100.00
14232;BME280;7200;52.194;9.900;2023-01-28T00:57:52;101391.81;;;1.73;100.00
14232;BME280;7200;52.194;9.900;2023-01-28T01:00:18;101373.56;;;1.72;100.00
14232;BME280;7200;52.194;9.900;2023-01-28T01:02:45;101366.56;;;1.68;100.00
14232;BME280;7200;52.194;9.900;2023-01-28T01:05:11;101364.81;;;1.67;100.00
14232;BME280;7200;52.194;9.900;2023-01-28T01:07:36;101365.69;;;1.69;100.00
14232;BME280;7200;52.194;9.900;2023-01-28T01:10:13;101355.25;;;1.64;100.00
14232;BME280;7200;52.194;9.900;2023-01-28T01:12:38;101368.28;;;1.66;100.00
14232;BME280;7200;52.194;9.900;2023-01-28T01:15:07;101374.38;;;1.68;100.00
14232;BME280;7200;52.194;9.900;2023-01-28T01:17:37;101383.91;;;1.69;100.00
14232;BME280;7200;52.194;9.900;2023-01-28T01:20:05;101389.09;;;1.67;100.00
14232;BME280;7200;52.194;9.900;2023-01-28T01:22:34;101392.47;;;1.60;100.00
14232;BME280;7200;52.194;9.900;2023-01-28T01:25:01;101400.44;;;1.72;100.00
14232;BME280;7200;52.194;9.900;2023-01-28T01:27:26;101404.84;;;1.77;100.00
14232;BME280;7200;52.194;9.900;2023-01-28T01:29:51;101397.06;;;1.78;100.00
14232;BME280;7200;52.194;9.900;2023-01-28T01:32:17;101378.72;;;1.70;100.00
14232;BME280;7200;52.194;9.900;2023-01-28T01:34:42;101377.91;;;1.73;100.00
14232;BME280;7200;52.194;9.900;2023-01-28T01:37:08;101376.16;;;1.72;100.00
14232;BME280;7200;52.194;9.900;2023-01-28T01:39:34;101383.19;;;1.78;100.00
14232;BME280;7200;52.194;9.900;2023-01-28T01:42:00;101391.00;;;1.81;100.00
14232;BME280;7200;52.194;9.900;2023-01-28T01:47:33;101371.81;;;1.72;100.00
14232;BME280;7200;52.194;9.900;2023-01-28T01:50:12;101365.72;;;1.70;100.00
14232;BME280;7200;52.194;9.900;2023-01-28T01:52:41;101374.47;;;1.74;100.00
14232;BME280;7200;52.194;9.900;2023-01-28T01:55:11;101379.63;;;1.72;100.00
14232;BME280;7200;52.194;9.900;2023-01-28T01:57:37;101367.41;;;1.67;100.00
14232;BME280;7200;52.194;9.900;2023-01-28T02:00:05;101374.44;;;1.72;100.00
14232;BME280;7200;52.194;9.900;2023-01-28T02:02:38;101377.94;;;1.74;100.00
14232;BME280;7200;52.194;9.900;2023-01-28T02:05:06;101374.47;;;1.77;100.00
14232;BME280;7200;52.194;9.900;2023-01-28T02:07:31;101375.34;;;1.76;100.00
14232;BME280;7200;52.194;9.900;2023-01-28T02:09:57;101372.75;;;1.76;100.00
14232;BME280;7200;52.194;9.900;2023-01-28T02:12:29;101384.88;;;1.77;100.00
14232;BME280;7200;52.194;9.900;2023-01-28T02:15:07;101387.50;;;1.77;100.00
14232;BME280;7200;52.194;9.900;2023-01-28T02:17:34;101384.00;;;1.73;100.00
14232;BME280;7200;52.194;9.900;2023-01-28T02:20:06;101377.03;;;1.72;100.00
14232;BME280;7200;52.194;9.900;2023-01-28T02:23:39;101389.97;;;1.69;100.00
14232;BME280;7200;52.194;9.900;2023-01-28T02:31:08;101414.31;;;1.73;100.00
14232;BME280;7200;52.194;9.900;2023-01-28T02:33:41;101385.56;;;1.64;100.00
14232;BME280;7200;52.194;9.900;2023-01-28T02:36:23;101403.75;;;1.64;100.00
14232;BME280;7200;52.194;9.900;2023-01-28T02:38:52;101397.69;;;1.63;100.00
14232;BME280;7200;52.194;9.900;2023-01-28T02:41:31;101360.06;;;1.40;100.00
14232;BME280;7200;52.194;9.900;2023-01-28T02:44:00;101359.94;;;1.32;100.00
14232;BME280;7200;52.194;9.900;2023-01-28T02:49:16;101361.75;;;1.36;100.00
14232;BME280;7200;52.194;9.900;2023-01-28T02:51:52;101369.59;;;1.41;100.00
14232;BME280;7200;52.194;9.900;2023-01-28T03:00:12;101347.81;;;1.32;100.00
14232;BME280;7200;52.194;9.900;2023-01-28T03:05:46;101363.44;;;1.34;100.00
14232;BME280;7200;52.194;9.900;2023-01-28T03:08:32;101348.41;;;1.16;100.00
14232;BME280;7200;52.194;9.900;2023-01-28T03:11:17;101361.59;;;1.27;100.00
14232;BME280;7200;52.194;9.900;2023-01-28T03:14:01;101374.78;;;1.38;100.00
14232;BME280;7200;52.194;9.900;2023-01-28T03:16:45;101373.97;;;1.42;100.00
14232;BME280;7200;52.194;9.900;2023-01-28T03:19:30;101371.41;;;1.43;100.00
14232;BME280;7200;52.194;9.900;2023-01-28T03:22:15;101369.66;;;1.44;100.00
14232;BME280;7200;52.194;9.900;2023-01-28T03:25:01;101352.28;;;1.43;100.00
14232;BME280;7200;52.194;9.900;2023-01-28T03:27:56;101359.28;;;1.47;100.00
14232;BME280;7200;52.194;9.900;2023-01-28T03:33:45;101346.34;;;1.50;100.00
14232;BME280;7200;52.194;9.900;2023-01-28T03:36:30;101341.13;;;1.48;100.00
14232;BME280;7200;52.194;9.900;2023-01-28T03:39:19;101324.53;;;1.40;100.00
14232;BME280;7200;52.194;9.900;2023-01-28T03:42:00;101324.13;;;1.15;100.00
14232;BME280;7200;52.194;9.900;2023-01-28T03:44:26;101339.78;;;1.20;100.00
14232;BME280;7200;52.194;9.900;2023-01-28T03:47:10;101372.84;;;1.27;100.00
14232;BME280;7200;52.194;9.900;2023-01-28T03:49:44;101394.63;;;1.35;100.00
14232;BME280;7200;52.194;9.900;2023-01-28T03:52:11;101389.38;;;1.31;100.00
14232;BME280;7200;52.194;9.900;2023-01-28T03:54:37;101412.81;;;1.32;100.00
14232;BME280;7200;52.194;9.900;2023-01-28T03:57:03;101422.34;;;1.32;100.00
14232;BME280;7200;52.194;9.900;2023-01-28T03:59:31;101431.03;;;1.34;100.00
14232;BME280;7200;52.194;9.900;2023-01-28T04:01:56;101422.19;;;1.23;100.00
14232;BME280;7200;52.194;9.900;2023-01-28T04:04:21;101443.97;;;1.31;100.00
14232;BME280;7200;52.194;9.900;2023-01-28T04:06:52;101451.78;;;1.31;100.00
14232;BME280;7200;52.194;9.900;2023-01-28T04:09:19;101449.09;;;1.28;100.00
14232;BME280;7200;52.194;9.900;2023-01-28T04:11:45;101456.00;;;1.26;100.00
14232;BME280;7200;52.194;9.900;2023-01-28T04:14:10;101458.59;;;1.26;100.00
14232;BME280;7200;52.194;9.900;2023-01-28T04:16:36;101470.81;;;1.30;100.00
14232;BME280;7200;52.194;9.900;2023-01-28T04:19:01;101462.13;;;1.29;100.00
14232;BME280;7200;52.194;9.900;2023-01-28T04:21:26;101455.25;;;1.31;100.00
14232;BME280;7200;52.194;9.900;2023-01-28T04:23:52;101442.19;;;1.28;100.00
14232;BME280;7200;52.194;9.900;2023-01-28T04:26:17;101421.34;;;1.25;100.00
14232;BME280;7200;52.194;9.900;2023-01-28T04:28:42;101427.47;;;1.29;100.00
14232;BME280;7200;52.194;9.900;2023-01-28T04:31:07;101417.13;;;1.32;100.00
14232;BME280;7200;52.194;9.900;2023-01-28T04:33:33;101406.78;;;1.35;100.00
14232;BME280;7200;52.194;9.900;2023-01-28T04:35:58;101385.94;;;1.32;100.00
14232;BME280;7200;52.194;9.900;2023-01-28T04:38:23;101362.41;;;1.26;100.00
14232;BME280;7200;52.194;9.900;2023-01-28T04:40:52;101361.66;;;1.33;100.00
14232;BME280;7200;52.194;9.900;2023-01-28T04:43:18;101346.00;;;1.30;100.00
14232;BME280;7200;52.194;9.900;2023-01-28T04:45:45;101331.31;;;1.30;100.00
14232;BME280;7200;52.194;9.900;2023-01-28T04:48:11;101320.84;;;1.27;100.00
14232;BME280;7200;52.194;9.900;2023-01-28T04:50:36;101321.72;;;1.26;100.00
14232;BME280;7200;52.194;9.900;2023-01-28T04:53:02;101323.53;;;1.32;100.00
14232;BME280;7200;52.194;9.900;2023-01-28T04:55:27;101312.22;;;1.30;100.00
14232;BME280;7200;52.194;9.900;2023-01-28T04:57:52;101310.44;;;1.26;100.00
14232;BME280;7200;52.194;9.900;2023-01-28T05:00:18;101280.00;;;1.17;100.00
14232;BME280;7200;52.194;9.900;2023-01-28T05:02:43;101273.13;;;1.21;100.00
14232;BME280;7200;52.194;9.900;2023-01-28T05:05:09;101257.56;;;1.25;100.00
14232;BME280;7200;52.194;9.900;2023-01-28T05:07:34;101269.78;;;1.31;100.00
14232;BME280;7200;52.194;9.900;2023-01-28T05:10:00;101260.94;;;1.20;100.00
14232;BME280;7200;52.194;9.900;2023-01-28T05:12:25;101303.47;;;1.23;100.00
14232;BME280;7200;52.194;9.900;2023-01-28T05:14:50;101320.03;;;1.30;100.00
14232;BME280;7200;52.194;9.900;2023-01-28T05:17:15;101359.16;;;1.39;100.00
14232;BME280;7200;52.194;9.900;2023-01-28T05:19:41;101378.28;;;1.43;100.00
14232;BME280;7200;52.194;9.900;2023-01-28T05:22:06;101375.66;;;1.41;100.00
14232;BME280;7200;52.194;9.900;2023-01-28T05:24:31;101356.63;;;1.42;100.00
14232;BME280;7200;52.194;9.900;2023-01-28T05:26:57;101381.78;;;1.43;100.00
14232;BME280;7200;52.194;9.900;2023-01-28T05:29:22;101387.81;;;1.42;100.00
14232;BME280;7200;52.194;9.900;2023-01-28T05:31:47;101367.00;;;1.41;100.00
14232;BME280;7200;52.194;9.900;2023-01-28T05:34:13;101364.41;;;1.41;100.00
14232;BME280;7200;52.194;9.900;2023-01-28T05:36:38;101323.28;;;1.15;100.00
14232;BME280;7200;52.194;9.900;2023-01-28T05:39:05;101309.16;;;1.01;100.00
14232;BME280;7200;52.194;9.900;2023-01-28T05:41:32;101349.22;;;1.13;100.00
14232;BME280;7200;52.194;9.900;2023-01-28T05:43:57;101345.81;;;1.17;100.00
14232;BME280;7200;52.194;9.900;2023-01-28T05:46:22;101371.13;;;1.28;100.00
14232;BME280;7200;52.194;9.900;2023-01-28T05:48:49;101376.34;;;1.29;100.00
14232;BME280;7200;52.194;9.900;2023-01-28T05:51:15;101364.25;;;1.31;100.00
14232;BME280;7200;52.194;9.900;2023-01-28T05:53:40;101355.59;;;1.32;100.00
14232;BME280;7200;52.194;9.900;2023-01-28T05:56:06;101360.84;;;1.34;100.00
14232;BME280;7200;52.194;9.900;2023-01-28T05:58:31;101332.16;;;1.29;100.00
14232;BME280;7200;52.194;9.900;2023-01-28T06:00:56;101311.25;;;1.23;100.00
14232;BME280;7200;52.194;9.900;2023-01-28T06:03:22;101304.31;;;1.21;100.00
14232;BME280;7200;52.194;9.900;2023-01-28T06:05:47;101312.84;;;1.13;100.00
14232;BME280;7200;52.194;9.900;2023-01-28T06:08:13;101310.25;;;1.13;100.00
14232;BME280;7200;52.194;9.900;2023-01-28T06:10:38;101311.94;;;1.11;100.00
14232;BME280;7200;52.194;9.900;2023-01-28T06:13:03;101310.25;;;1.13;100.00
14232;BME280;7200;52.194;9.900;2023-01-28T06:15:29;101305.06;;;1.16;100.00
14232;BME280;7200;52.194;9.900;2023-01-28T06:17:54;101293.63;;;1.05;100.00
14232;BME280;7200;52.194;9.900;2023-01-28T06:20:19;101300.63;;;1.08;100.00
14232;BME280;7200;52.194;9.900;2023-01-28T06:22:44;101317.97;;;1.10;100.00
14232;BME280;7200;52.194;9.900;2023-01-28T06:25:10;101292.59;;;0.92;100.00
14232;BME280;7200;52.194;9.900;2023-01-28T06:27:35;101273.28;;;0.78;100.00
14232;BME280;7200;52.194;9.900;2023-01-28T06:30:00;101280.94;;;0.70;100.00
14232;BME280;7200;52.194;9.900;2023-01-28T06:32:26;101312.47;;;0.92;100.00
14232;BME280;7200;52.194;9.900;2023-01-28T06:34:52;101295.03;;;0.85;100.00
14232;BME280;7200;52.194;9.900;2023-01-28T06:37:17;101274.94;;;0.74;100.00
14232;BME280;7200;52.194;9.900;2023-01-28T06:39:42;101259.25;;;0.68;100.00
14232;BME280;7200;52.194;9.900;2023-01-28T06:42:07;101272.31;;;0.73;100.00
14232;BME280;7200;52.194;9.900;2023-01-28T06:44:33;101277.47;;;0.71;100.00
14232;BME280;7200;52.194;9.900;2023-01-28T06:46:58;101309.75;;;0.84;100.00
14232;BME280;7200;52.194;9.900;2023-01-28T06:49:23;101326.34;;;0.92;100.00
14232;BME280;7200;52.194;9.900;2023-01-28T06:51:49;101294.00;;;0.75;100.00
14232;BME280;7200;52.194;9.900;2023-01-28T06:54:14;101306.16;;;0.76;100.00
14232;BME280;7200;52.194;9.900;2023-01-28T06:56:40;101364.44;;;0.92;100.00
14232;BME280;7200;52.194;9.900;2023-01-28T06:59:06;101397.47;;;0.99;100.00
14232;BME280;7200;52.194;9.900;2023-01-28T07:01:32;101412.31;;;1.05;100.00
14232;BME280;7200;52.194;9.900;2023-01-28T07:03:57;101361.78;;;0.89;100.00
14232;BME280;7200;52.194;9.900;2023-01-28T07:06:23;101379.94;;;0.87;100.00
14232;BME280;7200;52.194;9.900;2023-01-28T07:08:48;101342.31;;;0.65;100.00
14232;BME280;7200;52.194;9.900;2023-01-28T07:11:14;101290.94;;;0.50;100.00
14232;BME280;7200;52.194;9.900;2023-01-28T07:13:40;101278.84;;;0.51;100.00
14232;BME280;7200;52.194;9.900;2023-01-28T07:16:06;101272.00;;;0.56;100.00
14232;BME280;7200;52.194;9.900;2023-01-28T07:18:31;101271.28;;;0.63;100.00
14232;BME280;7200;52.194;9.900;2023-01-28T07:20:57;101285.41;;;0.77;100.00
14232;BME280;7200;52.194;9.900;2023-01-28T07:23:22;101277.53;;;0.74;100.00
14232;BME280;7200;52.194;9.900;2023-01-28T07:25:47;101303.66;;;0.82;100.00
14232;BME280;7200;52.194;9.900;2023-01-28T07:28:13;101304.63;;;0.87;100.00
14232;BME280;7200;52.194;9.900;2023-01-28T07:30:38;101315.81;;;0.85;100.00
14232;BME280;7200;52.194;9.900;2023-01-28T07:33:03;101347.22;;;0.97;100.00
14232;BME280;7200;52.194;9.900;2023-01-28T07:35:29;101329.78;;;0.91;100.00
14232;BME280;7200;52.194;9.900;2023-01-28T07:37:58;101332.44;;;0.94;100.00
14232;BME280;7200;52.194;9.900;2023-01-28T07:40:24;101292.19;;;0.71;100.00
14232;BME280;7200;52.194;9.900;2023-01-28T07:42:50;101313.81;;;0.68;100.00
14232;BME280;7200;52.194;9.900;2023-01-28T07:45:16;101319.78;;;0.66;100.00
14232;BME280;7200;52.194;9.900;2023-01-28T07:47:42;101358.22;;;0.84;100.00
14232;BME280;7200;52.194;9.900;2023-01-28T07:50:09;101384.34;;;0.91;100.00
14232;BME280;7200;52.194;9.900;2023-01-28T07:52:35;101376.63;;;0.94;100.00
14232;BME280;7200;52.194;9.900;2023-01-28T07:55:08;101365.25;;;0.89;100.00
14232;BME280;7200;52.194;9.900;2023-01-28T07:57:34;101389.69;;;0.99;100.00
14232;BME280;7200;52.194;9.900;2023-01-28T07:59:59;101360.88;;;0.85;100.00
14232;BME280;7200;52.194;9.900;2023-01-28T08:02:24;101355.66;;;0.85;100.00
14232;BME280;7200;52.194;9.900;2023-01-28T08:04:50;101326.75;;;0.67;100.00
14232;BME280;7200;52.194;9.900;2023-01-28T08:07:15;101333.81;;;0.74;100.00
14232;BME280;7200;52.194;9.900;2023-01-28T08:09:40;101275.47;;;0.56;100.00
14232;BME280;7200;52.194;9.900;2023-01-28T08:12:05;101238.09;;;0.47;100.00
14232;BME280;7200;52.194;9.900;2023-01-28T08:14:31;101257.44;;;0.63;100.00
14232;BME280;7200;52.194;9.900;2023-01-28T08:16:56;101271.53;;;0.78;100.00
14232;BME280;7200;52.194;9.900;2023-01-28T08:19:22;101280.19;;;0.79;100.00
14232;BME280;7200;52.194;9.900;2023-01-28T08:21:47;101268.78;;;0.69;100.00
14232;BME280;7200;52.194;9.900;2023-01-28T08:24:12;101308.84;;;0.82;100.00
14232;BME280;7200;52.194;9.900;2023-01-28T08:26:37;101339.31;;;0.91;100.00
14232;BME280;7200;52.194;9.900;2023-01-28T08:29:03;101330.50;;;0.81;100.00
14232;BME280;7200;52.194;9.900;2023-01-28T08:31:29;101314.13;;;0.88;100.00
14232;BME280;7200;52.194;9.900;2023-01-28T08:33:54;101318.63;;;0.97;100.00
14232;BME280;7200;52.194;9.900;2023-01-28T08:36:20;101272.41;;;0.77;100.00
14232;BME280;7200;52.194;9.900;2023-01-28T08:38:45;101316.13;;;1.03;100.00
14232;BME280;7200;52.194;9.900;2023-01-28T08:41:10;101363.25;;;1.23;100.00
14232;BME280;7200;52.194;9.900;2023-01-28T08:43:35;101303.09;;;1.02;100.00
14232;BME280;7200;52.194;9.900;2023-01-28T08:46:04;101290.88;;;0.96;100.00
14232;BME280;7200;52.194;9.900;2023-01-28T08:48:29;101248.91;;;0.70;100.00
14232;BME280;7200;52.194;9.900;2023-01-28T08:50:57;101283.72;;;0.83;100.00
14232;BME280;7200;52.194;9.900;2023-01-28T08:53:23;101310.75;;;0.94;100.00
14232;BME280;7200;52.194;9.900;2023-01-28T08:55:48;101373.56;;;1.17;100.00
14232;BME280;7200;52.194;9.900;2023-01-28T08:58:15;101330.91;;;1.06;100.00
14232;BME280;7200;52.194;9.900;2023-01-28T09:00:42;101317.78;;;1.00;100.00
14232;BME280;7200;52.194;9.900;2023-01-28T09:03:08;101291.81;;;0.98;100.00
14232;BME280;7200;52.194;9.900;2023-01-28T09:05:34;101303.03;;;0.97;100.00
14232;BME280;7200;52.194;9.900;2023-01-28T09:08:00;101317.88;;;1.04;100.00
14232;BME280;7200;52.194;9.900;2023-01-28T09:10:26;101320.41;;;1.01;100.00
14232;BME280;7200;52.194;9.900;2023-01-28T09:12:51;101303.91;;;0.97;100.00
14232;BME280;7200;52.194;9.900;2023-01-28T09:15:17;101314.50;;;1.10;100.00
14232;BME280;7200;52.194;9.900;2023-01-28T09:17:42;101329.31;;;1.14;100.00
14232;BME280;7200;52.194;9.900;2023-01-28T09:20:08;101307.69;;;1.15;100.00
14232;BME280;7200;52.194;9.900;2023-01-28T09:22:33;101289.09;;;0.92;100.00
14232;BME280;7200;52.194;9.900;2023-01-28T09:24:58;101278.63;;;0.87;100.00
14232;BME280;7200;52.194;9.900;2023-01-28T09:27:24;101262.91;;;0.80;100.00
14232;BME280;7200;52.194;9.900;2023-01-28T09:29:49;101328.28;;;1.04;100.00
14232;BME280;7200;52.194;9.900;2023-01-28T09:32:14;101315.13;;;0.95;100.00
14232;BME280;7200;52.194;9.900;2023-01-28T09:34:40;101288.97;;;0.84;100.00
14232;BME280;7200;52.194;9.900;2023-01-28T09:37:05;101317.59;;;0.87;100.00
14232;BME280;7200;52.194;9.900;2023-01-28T09:39:30;101310.53;;;0.80;100.00
14232;BME280;7200;52.194;9.900;2023-01-28T09:49:58;101355.91;;;0.99;100.00
14232;BME280;7200;52.194;9.900;2023-01-28T09:52:29;101396.84;;;1.12;100.00
14232;BME280;7200;52.194;9.900;2023-01-28T09:57:47;101356.56;;;0.87;100.00
14232;BME280;7200;52.194;9.900;2023-01-28T10:00:17;101332.78;;;0.66;100.00
14232;BME280;7200;52.194;9.900;2023-01-28T10:13:59;101401.63;;;0.89;100.00
14232;BME280;7200;52.194;9.900;2023-01-28T10:16:34;101376.47;;;0.88;100.00
14232;BME280;7200;52.194;9.900;2023-01-28T10:19:26;101368.81;;;0.94;100.00
14232;BME280;7200;52.194;9.900;2023-01-28T10:21:55;101348.75;;;0.86;100.00
14232;BME280;7200;52.194;9.900;2023-01-28T10:26:52;101371.25;;;0.85;100.00
14232;BME280;7200;52.194;9.900;2023-01-28T10:29:24;101381.69;;;0.88;100.00
14232;BME280;7200;52.194;9.900;2023-01-28T10:32:15;101395.69;;;0.95;100.00
14232;BME280;7200;52.194;9.900;2023-01-28T10:34:37;101380.16;;;0.98;100.00
14232;BME280;7200;52.194;9.900;2023-01-28T10:37:03;101347.16;;;0.92;100.00
14232;BME280;7200;52.194;9.900;2023-01-28T10:39:29;101347.16;;;0.94;100.00
14232;BME280;7200;52.194;9.900;2023-01-28T10:41:54;101304.22;;;0.64;100.00
14232;BME280;7200;52.194;9.900;2023-01-28T10:44:40;101301.44;;;0.55;100.00
14232;BME280;7200;52.194;9.900;2023-01-28T10:47:13;101308.34;;;0.53;100.00
14232;BME280;7200;52.194;9.900;2023-01-28T10:49:48;101376.19;;;0.73;100.00
14232;BME280;7200;52.194;9.900;2023-01-28T10:52:17;101374.41;;;0.69;100.00
14232;BME280;7200;52.194;9.900;2023-01-28T10:54:43;101355.97;;;0.56;100.00
14232;BME280;7200;52.194;9.900;2023-01-28T10:57:13;101376.00;;;0.62;100.00
14232;BME280;7200;52.194;9.900;2023-01-28T10:59:41;101349.69;;;0.45;100.00
14232;BME280;7200;52.194;9.900;2023-01-28T11:02:31;101389.75;;;0.58;100.00
14232;BME280;7200;52.194;9.900;2023-01-28T11:05:18;101384.56;;;0.58;100.00
14232;BME280;7200;52.194;9.900;2023-01-28T11:07:45;101389.91;;;0.64;100.00
14232;BME280;7200;52.194;9.900;2023-01-28T11:10:30;101368.94;;;0.55;100.00
14232;BME280;7200;52.194;9.900;2023-01-28T11:13:04;101433.47;;;0.79;100.00
14232;BME280;7200;52.194;9.900;2023-01-28T11:15:30;101379.63;;;0.70;100.00
14232;BME280;7200;52.194;9.900;2023-01-28T11:18:01;101376.19;;;0.73;100.00
14232;BME280;7200;52.194;9.900;2023-01-28T11:20:30;101375.22;;;0.66;100.00
14232;BME280;7200;52.194;9.900;2023-01-28T11:22:58;101365.78;;;0.70;100.00
14232;BME280;7200;52.194;9.900;2023-01-28T11:25:30;101368.34;;;0.68;100.00
14232;BME280;7200;52.194;9.900;2023-01-28T11:27:57;101383.16;;;0.74;100.00
14232;BME280;7200;52.194;9.900;2023-01-28T11:30:27;101386.69;;;0.79;100.00
14232;BME280;7200;52.194;9.900;2023-01-28T11:32:59;101400.00;;;0.96;100.00
14232;BME280;7200;52.194;9.900;2023-01-28T11:35:30;101350.38;;;0.81;100.00
14232;BME280;7200;52.194;9.900;2023-01-28T11:37:57;101329.41;;;0.70;100.00
14232;BME280;7200;52.194;9.900;2023-01-28T11:40:23;101372.13;;;0.86;100.00
14232;BME280;7200;52.194;9.900;2023-01-28T11:42:50;101339.88;;;0.74;100.00
14232;BME280;7200;52.194;9.900;2023-01-28T11:45:18;101346.84;;;0.75;100.00
14232;BME280;7200;52.194;9.900;2023-01-28T11:47:53;101342.47;;;0.74;100.00
14232;BME280;7200;52.194;9.900;2023-01-28T11:50:32;101336.47;;;0.78;100.00
14232;BME280;7200;52.194;9.900;2023-01-28T11:53:30;101286.84;;;0.62;100.00
14232;BME280;7200;52.194;9.900;2023-01-28T11:56:38;101312.00;;;0.66;100.00
14232;BME280;7200;52.194;9.900;2023-01-28T11:59:34;101277.19;;;0.54;100.00
14232;BME280;7200;52.194;9.900;2023-01-28T12:02:11;101285.88;;;0.56;100.00
14232;BME280;7200;52.194;9.900;2023-01-28T12:13:24;101332.44;;;0.96;100.00
14232;BME280;7200;52.194;9.900;2023-01-28T12:16:02;101301.34;;;0.99;100.00
14232;BME280;7200;52.194;9.900;2023-01-28T12:19:02;101266.28;;;0.74;100.00
14232;BME280;7200;52.194;9.900;2023-01-28T12:26:58;101248.91;;;0.70;100.00
14232;BME280;7200;52.194;9.900;2023-01-28T12:32:27;101258.25;;;0.62;100.00
14232;BME280;7200;52.194;9.900;2023-01-28T12:35:10;101294.16;;;0.84;100.00
14232;BME280;7200;52.194;9.900;2023-01-28T12:40:24;101345.94;;;1.25;100.00
14232;BME280;7200;52.194;9.900;2023-01-28T12:43:03;101335.81;;;1.42;100.00
14232;BME280;7200;52.194;9.900;2023-01-28T12:45:37;101383.06;;;1.70;100.00
14232;BME280;7200;52.194;9.900;2023-01-28T12:48:21;101315.50;;;1.76;100.00
14232;BME280;7200;52.194;9.900;2023-01-28T12:53:41;101316.00;;;2.13;100.00
14232;BME280;7200;52.194;9.900;2023-01-28T12:56:44;101235.75;;;1.78;100.00
14232;BME280;7200;52.194;9.900;2023-01-28T12:59:24;101124.94;;;1.22;100.00
14232;BME280;7200;52.194;9.900;2023-01-28T13:02:12;101135.97;;;1.03;100.00
14232;BME280;7200;52.194;9.900;2023-01-28T13:04:51;101198.75;;;1.32;100.00
14232;BME280;7200;52.194;9.900;2023-01-28T13:08:10;101209.38;;;1.50;100.00
14232;BME280;7200;52.194;9.900;2023-01-28T13:10:23;101145.97;;;1.38;100.00
14232;BME280;7200;52.194;9.900;2023-01-28T13:12:49;101184.19;;;1.43;100.00
14232;BME280;7200;52.194;9.900;2023-01-28T13:15:16;101224.19;;;1.54;100.00
14232;BME280;7200;52.194;9.900;2023-01-28T13:18:03;101169.22;;;1.27;100.00
14232;BME280;7200;52.194;9.900;2023-01-28T13:20:45;101148.03;;;0.99;100.00
14232;BME280;7200;52.194;9.900;2023-01-28T13:23:36;101212.41;;;1.19;100.00
14232;BME280;7200;52.194;9.900;2023-01-28T13:26:28;101236.81;;;1.30;100.00
14232;BME280;7200;52.194;9.900;2023-01-28T13:29:07;101258.66;;;1.41;100.00
14232;BME280;7200;52.194;9.900;2023-01-28T13:31:39;101205.53;;;1.21;100.00
14232;BME280;7200;52.194;9.900;2023-01-28T13:34:06;101198.28;;;0.98;100.00
14232;BME280;7200;52.194;9.900;2023-01-28T13:36:44;101172.88;;;0.80;100.00
14232;BME280;7200;52.194;9.900;2023-01-28T13:47:12;101228.56;;;0.97;100.00
14232;BME280;7200;52.194;9.900;2023-01-28T13:49:41;101218.03;;;0.87;100.00
14232;BME280;7200;52.194;9.900;2023-01-28T13:55:00;101288.56;;;1.11;100.00
14232;BME280;7200;52.194;9.900;2023-01-28T13:57:48;101263.25;;;1.01;100.00
14232;BME280;7200;52.194;9.900;2023-01-28T14:00:26;101233.63;;;0.90;100.00
14232;BME280;7200;52.194;9.900;2023-01-28T14:08:51;101304.28;;;1.19;100.00
14232;BME280;7200;52.194;9.900;2023-01-28T14:11:45;101246.69;;;0.93;100.00
14232;BME280;7200;52.194;9.900;2023-01-28T14:14:34;101281.63;;;1.12;100.00
14232;BME280;7200;52.194;9.900;2023-01-28T14:17:22;101279.97;;;1.15;100.00
14232;BME280;7200;52.194;9.900;2023-01-28T14:19:52;101280.75;;;1.11;100.00
14232;BME280;7200;52.194;9.900;2023-01-28T14:22:19;101258.09;;;1.03;100.00
14232;BME280;7200;52.194;9.900;2023-01-28T14:24:45;101254.66;;;1.04;100.00
14232;BME280;7200;52.194;9.900;2023-01-28T14:27:17;101244.03;;;0.90;100.00
14232;BME280;7200;52.194;9.900;2023-01-28T14:30:07;101275.28;;;0.96;100.00
14232;BME280;7200;52.194;9.900;2023-01-28T14:32:45;101240.34;;;0.77;100.00
14232;BME280;7200;52.194;9.900;2023-01-28T14:35:17;101243.75;;;0.73;100.00
14232;BME280;7200;52.194;9.900;2023-01-28T14:37:43;101248.91;;;0.70;100.00
14232;BME280;7200;52.194;9.900;2023-01-28T14:40:14;101251.53;;;0.73;100.00
14232;BME280;7200;52.194;9.900;2023-01-28T14:42:45;101256.63;;;0.67;100.00